sensor_id;sensor_type;location;lat;lon;timestamp;P1;durP1;ratioP1;P2;durP2;ratioP2
58017;SDS011;43810;50.860;19.226;2022-08-14T00:01:16;15.52;;;9.70;;
58017;SDS011;43810;50.860;19.226;2022-08-14T00:03:42;15.27;;;9.82;;
58017;SDS011;43810;50.860;19.226;2022-08-14T00:06:08;15.20;;;9.18;;
58017;SDS011;43810;50.860;19.226;2022-08-14T00:08:34;12.88;;;9.52;;
58017;SDS011;43810;50.860;19.226;2022-08-14T00:10:59;16.70;;;10.25;;
58017;SDS011;43810;50.860;19.226;2022-08-14T00:13:26;11.30;;;8.65;;
58017;SDS011;43810;50.860;19.226;2022-08-14T00:15:55;12.77;;;9.55;;
58017;SDS011;43810;50.860;19.226;2022-08-14T00:18:22;14.13;;;9.10;;
58017;SDS011;43810;50.860;19.226;2022-08-14T00:20:48;13.88;;;9.13;;
58017;SDS011;43810;50.860;19.226;2022-08-14T00:23:14;12.90;;;9.57;;
58017;SDS011;43810;50.860;19.226;2022-08-14T00:25:40;15.55;;;11.00;;
58017;SDS011;43810;50.860;19.226;2022-08-14T00:28:08;15.95;;;8.95;;
58017;SDS011;43810;50.860;19.226;2022-08-14T00:30:33;16.05;;;9.23;;
58017;SDS011;43810;50.860;19.226;2022-08-14T00:32:59;13.43;;;9.30;;
58017;SDS011;43810;50.860;19.226;2022-08-14T00:35:24;16.90;;;8.77;;
58017;SDS011;43810;50.860;19.226;2022-08-14T00:37:50;11.50;;;8.63;;
58017;SDS011;43810;50.860;19.226;2022-08-14T00:40:17;11.25;;;8.63;;
58017;SDS011;43810;50.860;19.226;2022-08-14T00:42:43;11.88;;;8.77;;
58017;SDS011;43810;50.860;19.226;2022-08-14T00:45:10;15.63;;;10.18;;
58017;SDS011;43810;50.860;19.226;2022-08-14T00:47:35;20.60;;;10.82;;
58017;SDS011;43810;50.860;19.226;2022-08-14T00:50:03;13.52;;;10.05;;
58017;SDS011;43810;50.860;19.226;2022-08-14T00:52:29;13.05;;;9.45;;
58017;SDS011;43810;50.860;19.226;2022-08-14T00:54:57;16.48;;;10.23;;
58017;SDS011;43810;50.860;19.226;2022-08-14T00:57:28;15.82;;;10.48;;
58017;SDS011;43810;50.860;19.226;2022-08-14T00:59:53;11.68;;;9.48;;
58017;SDS011;43810;50.860;19.226;2022-08-14T01:02:20;13.35;;;9.52;;
58017;SDS011;43810;50.860;19.226;2022-08-14T01:04:53;16.58;;;9.70;;
58017;SDS011;43810;50.860;19.226;2022-08-14T01:07:19;14.18;;;9.93;;
58017;SDS011;43810;50.860;19.226;2022-08-14T01:09:52;14.57;;;10.48;;
58017;SDS011;43810;50.860;19.226;2022-08-14T01:12:18;12.95;;;9.60;;
58017;SDS011;43810;50.860;19.226;2022-08-14T01:14:44;17.45;;;10.52;;
58017;SDS011;43810;50.860;19.226;2022-08-14T01:17:10;14.48;;;9.60;;
58017;SDS011;43810;50.860;19.226;2022-08-14T01:19:36;13.05;;;8.85;;
58017;SDS011;43810;50.860;19.226;2022-08-14T01:22:20;13.77;;;9.73;;
58017;SDS011;43810;50.860;19.226;2022-08-14T01:24:46;14.90;;;9.77;;
58017;SDS011;43810;50.860;19.226;2022-08-14T01:27:13;14.02;;;9.40;;
58017;SDS011;43810;50.860;19.226;2022-08-14T01:29:39;14.48;;;9.55;;
58017;SDS011;43810;50.860;19.226;2022-08-14T01:32:05;14.45;;;8.93;;
58017;SDS011;43810;50.860;19.226;2022-08-14T01:34:31;15.88;;;9.45;;
58017;SDS011;43810;50.860;19.226;2022-08-14T01:36:58;14.43;;;9.60;;
58017;SDS011;43810;50.860;19.226;2022-08-14T01:39:24;12.63;;;9.38;;
58017;SDS011;43810;50.860;19.226;2022-08-14T01:41:49;15.02;;;10.23;;
58017;SDS011;43810;50.860;19.226;2022-08-14T01:44:26;12.90;;;9.85;;
58017;SDS011;43810;50.860;19.226;2022-08-14T01:46:54;14.52;;;10.40;;
58017;SDS011;43810;50.860;19.226;2022-08-14T01:49:20;12.77;;;10.27;;
58017;SDS011;43810;50.860;19.226;2022-08-14T01:51:46;13.27;;;9.43;;
58017;SDS011;43810;50.860;19.226;2022-08-14T01:54:14;13.43;;;9.85;;
58017;SDS011;43810;50.860;19.226;2022-08-14T01:56:40;13.45;;;9.82;;
58017;SDS011;43810;50.860;19.226;2022-08-14T01:59:08;14.25;;;9.82;;
58017;SDS011;43810;50.860;19.226;2022-08-14T02:01:34;14.70;;;10.02;;
58017;SDS011;43810;50.860;19.226;2022-08-14T02:04:01;17.17;;;9.73;;
58017;SDS011;43810;50.860;19.226;2022-08-14T02:06:27;14.07;;;9.85;;
58017;SDS011;43810;50.860;19.226;2022-08-14T02:08:53;14.77;;;9.48;;
58017;SDS011;43810;50.860;19.226;2022-08-14T02:11:18;14.68;;;10.55;;
58017;SDS011;43810;50.860;19.226;2022-08-14T02:13:57;13.80;;;9.50;;
58017;SDS011;43810;50.860;19.226;2022-08-14T02:16:25;15.38;;;10.55;;
58017;SDS011;43810;50.860;19.226;2022-08-14T02:18:52;14.90;;;9.45;;
58017;SDS011;43810;50.860;19.226;2022-08-14T02:21:18;13.90;;;9.98;;
58017;SDS011;43810;50.860;19.226;2022-08-14T02:23:45;14.73;;;10.30;;
58017;SDS011;43810;50.860;19.226;2022-08-14T02:26:16;12.80;;;10.32;;
58017;SDS011;43810;50.860;19.226;2022-08-14T02:28:41;14.02;;;9.93;;
58017;SDS011;43810;50.860;19.226;2022-08-14T02:31:07;13.18;;;9.75;;
58017;SDS011;43810;50.860;19.226;2022-08-14T02:33:33;13.23;;;9.77;;
58017;SDS011;43810;50.860;19.226;2022-08-14T02:36:00;14.30;;;9.80;;
58017;SDS011;43810;50.860;19.226;2022-08-14T02:38:25;15.25;;;10.10;;
58017;SDS011;43810;50.860;19.226;2022-08-14T02:40:51;15.13;;;10.48;;
58017;SDS011;43810;50.860;19.226;2022-08-14T02:43:16;13.35;;;9.93;;
58017;SDS011;43810;50.860;19.226;2022-08-14T02:45:42;15.18;;;9.98;;
58017;SDS011;43810;50.860;19.226;2022-08-14T02:48:10;15.93;;;10.27;;
58017;SDS011;43810;50.860;19.226;2022-08-14T02:50:36;17.20;;;11.00;;
58017;SDS011;43810;50.860;19.226;2022-08-14T02:53:03;15.55;;;10.88;;
58017;SDS011;43810;50.860;19.226;2022-08-14T02:55:29;23.35;;;11.88;;
58017;SDS011;43810;50.860;19.226;2022-08-14T02:57:55;14.60;;;10.85;;
58017;SDS011;43810;50.860;19.226;2022-08-14T03:00:21;21.60;;;11.05;;
58017;SDS011;43810;50.860;19.226;2022-08-14T03:02:48;18.23;;;9.55;;
58017;SDS011;43810;50.860;19.226;2022-08-14T03:05:15;12.85;;;10.30;;
58017;SDS011;43810;50.860;19.226;2022-08-14T03:07:41;17.52;;;10.98;;
58017;SDS011;43810;50.860;19.226;2022-08-14T03:10:07;16.23;;;10.43;;
58017;SDS011;43810;50.860;19.226;2022-08-14T03:12:34;14.85;;;11.00;;
58017;SDS011;43810;50.860;19.226;2022-08-14T03:15:00;18.45;;;10.93;;
58017;SDS011;43810;50.860;19.226;2022-08-14T03:17:30;17.15;;;11.20;;
58017;SDS011;43810;50.860;19.226;2022-08-14T03:19:56;15.70;;;11.30;;
58017;SDS011;43810;50.860;19.226;2022-08-14T03:22:21;17.05;;;11.60;;
58017;SDS011;43810;50.860;19.226;2022-08-14T03:24:47;18.08;;;11.65;;
58017;SDS011;43810;50.860;19.226;2022-08-14T03:27:12;20.83;;;11.43;;
58017;SDS011;43810;50.860;19.226;2022-08-14T03:29:38;17.25;;;11.52;;
58017;SDS011;43810;50.860;19.226;2022-08-14T03:32:05;17.17;;;11.70;;
58017;SDS011;43810;50.860;19.226;2022-08-14T03:34:30;21.67;;;12.02;;
58017;SDS011;43810;50.860;19.226;2022-08-14T03:36:56;18.70;;;13.52;;
58017;SDS011;43810;50.860;19.226;2022-08-14T03:39:23;15.60;;;11.60;;
58017;SDS011;43810;50.860;19.226;2022-08-14T03:41:49;19.40;;;12.95;;
58017;SDS011;43810;50.860;19.226;2022-08-14T03:44:14;20.40;;;11.90;;
58017;SDS011;43810;50.860;19.226;2022-08-14T03:46:40;25.75;;;14.88;;
58017;SDS011;43810;50.860;19.226;2022-08-14T03:49:07;22.25;;;13.77;;
58017;SDS011;43810;50.860;19.226;2022-08-14T03:51:34;33.17;;;14.43;;
58017;SDS011;43810;50.860;19.226;2022-08-14T03:54:02;22.55;;;13.90;;
58017;SDS011;43810;50.860;19.226;2022-08-14T03:56:28;26.65;;;14.98;;
58017;SDS011;43810;50.860;19.226;2022-08-14T03:58:58;29.83;;;15.57;;
58017;SDS011;43810;50.860;19.226;2022-08-14T04:01:25;28.25;;;15.60;;
58017;SDS011;43810;50.860;19.226;2022-08-14T04:03:52;30.58;;;16.33;;
58017;SDS011;43810;50.860;19.226;2022-08-14T04:06:19;28.30;;;15.68;;
58017;SDS011;43810;50.860;19.226;2022-08-14T04:08:45;28.38;;;15.65;;
58017;SDS011;43810;50.860;19.226;2022-08-14T04:11:10;30.90;;;15.57;;
58017;SDS011;43810;50.860;19.226;2022-08-14T04:13:37;35.13;;;16.92;;
58017;SDS011;43810;50.860;19.226;2022-08-14T04:16:36;24.48;;;16.08;;
58017;SDS011;43810;50.860;19.226;2022-08-14T04:18:55;25.85;;;15.48;;
58017;SDS011;43810;50.860;19.226;2022-08-14T04:21:22;26.95;;;16.65;;
58017;SDS011;43810;50.860;19.226;2022-08-14T04:23:49;29.40;;;15.52;;
58017;SDS011;43810;50.860;19.226;2022-08-14T04:26:16;27.88;;;15.65;;
58017;SDS011;43810;50.860;19.226;2022-08-14T04:28:47;27.25;;;17.00;;
58017;SDS011;43810;50.860;19.226;2022-08-14T04:31:14;24.08;;;15.38;;
58017;SDS011;43810;50.860;19.226;2022-08-14T04:33:40;23.63;;;15.60;;
58017;SDS011;43810;50.860;19.226;2022-08-14T04:36:05;29.67;;;16.45;;
58017;SDS011;43810;50.860;19.226;2022-08-14T04:38:31;26.25;;;16.40;;
58017;SDS011;43810;50.860;19.226;2022-08-14T04:41:16;25.20;;;15.20;;
58017;SDS011;43810;50.860;19.226;2022-08-14T04:44:00;28.52;;;16.35;;
58017;SDS011;43810;50.860;19.226;2022-08-14T04:46:26;28.42;;;16.48;;
58017;SDS011;43810;50.860;19.226;2022-08-14T04:48:53;27.40;;;16.48;;
58017;SDS011;43810;50.860;19.226;2022-08-14T04:51:20;31.33;;;16.83;;
58017;SDS011;43810;50.860;19.226;2022-08-14T04:53:50;25.92;;;15.57;;
58017;SDS011;43810;50.860;19.226;2022-08-14T04:56:16;27.27;;;15.68;;
58017;SDS011;43810;50.860;19.226;2022-08-14T04:58:42;25.27;;;16.65;;
58017;SDS011;43810;50.860;19.226;2022-08-14T05:01:09;25.35;;;15.80;;
58017;SDS011;43810;50.860;19.226;2022-08-14T05:03:35;21.80;;;14.10;;
58017;SDS011;43810;50.860;19.226;2022-08-14T05:06:02;20.50;;;14.38;;
58017;SDS011;43810;50.860;19.226;2022-08-14T05:08:29;22.52;;;15.65;;
58017;SDS011;43810;50.860;19.226;2022-08-14T05:10:55;23.50;;;15.18;;
58017;SDS011;43810;50.860;19.226;2022-08-14T05:13:22;20.38;;;14.85;;
58017;SDS011;43810;50.860;19.226;2022-08-14T05:15:48;20.98;;;14.25;;
58017;SDS011;43810;50.860;19.226;2022-08-14T05:18:16;22.33;;;14.80;;
58017;SDS011;43810;50.860;19.226;2022-08-14T05:20:43;23.67;;;14.80;;
58017;SDS011;43810;50.860;19.226;2022-08-14T05:23:11;22.42;;;14.32;;
58017;SDS011;43810;50.860;19.226;2022-08-14T05:25:37;24.48;;;15.32;;
58017;SDS011;43810;50.860;19.226;2022-08-14T05:28:11;20.23;;;13.32;;
58017;SDS011;43810;50.860;19.226;2022-08-14T05:30:38;21.67;;;13.93;;
58017;SDS011;43810;50.860;19.226;2022-08-14T05:33:04;21.98;;;14.48;;
58017;SDS011;43810;50.860;19.226;2022-08-14T05:35:30;19.60;;;13.35;;
58017;SDS011;43810;50.860;19.226;2022-08-14T05:37:58;21.63;;;14.10;;
58017;SDS011;43810;50.860;19.226;2022-08-14T05:40:23;20.85;;;12.75;;
58017;SDS011;43810;50.860;19.226;2022-08-14T05:42:49;18.08;;;13.32;;
58017;SDS011;43810;50.860;19.226;2022-08-14T05:45:15;19.60;;;13.43;;
58017;SDS011;43810;50.860;19.226;2022-08-14T05:47:41;20.77;;;13.18;;
58017;SDS011;43810;50.860;19.226;2022-08-14T05:50:07;19.60;;;12.93;;
58017;SDS011;43810;50.860;19.226;2022-08-14T05:52:33;20.02;;;14.13;;
58017;SDS011;43810;50.860;19.226;2022-08-14T05:54:59;23.25;;;14.57;;
58017;SDS011;43810;50.860;19.226;2022-08-14T05:57:25;20.25;;;13.63;;
58017;SDS011;43810;50.860;19.226;2022-08-14T05:59:51;23.33;;;14.30;;
58017;SDS011;43810;50.860;19.226;2022-08-14T06:02:17;23.42;;;15.20;;
58017;SDS011;43810;50.860;19.226;2022-08-14T06:04:42;21.08;;;13.90;;
58017;SDS011;43810;50.860;19.226;2022-08-14T06:07:15;21.33;;;13.27;;
58017;SDS011;43810;50.860;19.226;2022-08-14T06:09:41;19.05;;;13.27;;
58017;SDS011;43810;50.860;19.226;2022-08-14T06:12:07;18.58;;;13.10;;
58017;SDS011;43810;50.860;19.226;2022-08-14T06:14:33;18.90;;;12.30;;
58017;SDS011;43810;50.860;19.226;2022-08-14T06:16:58;18.42;;;12.95;;
58017;SDS011;43810;50.860;19.226;2022-08-14T06:19:24;17.73;;;12.05;;
58017;SDS011;43810;50.860;19.226;2022-08-14T06:21:50;20.40;;;12.63;;
58017;SDS011;43810;50.860;19.226;2022-08-14T06:24:16;15.85;;;12.10;;
58017;SDS011;43810;50.860;19.226;2022-08-14T06:26:41;19.55;;;12.00;;
58017;SDS011;43810;50.860;19.226;2022-08-14T06:29:07;17.77;;;11.82;;
58017;SDS011;43810;50.860;19.226;2022-08-14T06:31:34;19.05;;;11.93;;
58017;SDS011;43810;50.860;19.226;2022-08-14T06:33:59;18.48;;;11.85;;
58017;SDS011;43810;50.860;19.226;2022-08-14T06:36:25;17.42;;;11.38;;
58017;SDS011;43810;50.860;19.226;2022-08-14T06:38:51;19.55;;;12.27;;
58017;SDS011;43810;50.860;19.226;2022-08-14T06:41:17;17.70;;;12.00;;
58017;SDS011;43810;50.860;19.226;2022-08-14T06:43:43;16.52;;;11.52;;
58017;SDS011;43810;50.860;19.226;2022-08-14T06:46:08;16.55;;;12.13;;
58017;SDS011;43810;50.860;19.226;2022-08-14T06:48:34;20.60;;;12.02;;
58017;SDS011;43810;50.860;19.226;2022-08-14T06:50:59;17.88;;;11.55;;
58017;SDS011;43810;50.860;19.226;2022-08-14T06:53:25;15.82;;;11.32;;
58017;SDS011;43810;50.860;19.226;2022-08-14T06:55:50;15.48;;;11.10;;
58017;SDS011;43810;50.860;19.226;2022-08-14T06:58:16;16.05;;;11.45;;
58017;SDS011;43810;50.860;19.226;2022-08-14T07:00:42;17.08;;;12.07;;
58017;SDS011;43810;50.860;19.226;2022-08-14T07:03:28;18.48;;;11.90;;
58017;SDS011;43810;50.860;19.226;2022-08-14T07:06:13;16.42;;;11.13;;
58017;SDS011;43810;50.860;19.226;2022-08-14T07:08:39;17.48;;;12.57;;
58017;SDS011;43810;50.860;19.226;2022-08-14T07:11:04;19.20;;;12.40;;
58017;SDS011;43810;50.860;19.226;2022-08-14T07:13:30;18.60;;;12.90;;
58017;SDS011;43810;50.860;19.226;2022-08-14T07:15:56;22.92;;;13.48;;
58017;SDS011;43810;50.860;19.226;2022-08-14T07:18:22;17.13;;;11.50;;
58017;SDS011;43810;50.860;19.226;2022-08-14T07:20:48;18.52;;;12.43;;
58017;SDS011;43810;50.860;19.226;2022-08-14T07:23:14;15.50;;;11.18;;
58017;SDS011;43810;50.860;19.226;2022-08-14T07:25:40;17.17;;;12.45;;
58017;SDS011;43810;50.860;19.226;2022-08-14T07:28:13;16.38;;;11.63;;
58017;SDS011;43810;50.860;19.226;2022-08-14T07:30:39;13.90;;;10.20;;
58017;SDS011;43810;50.860;19.226;2022-08-14T07:33:05;14.77;;;10.73;;
58017;SDS011;43810;50.860;19.226;2022-08-14T07:35:31;17.05;;;10.68;;
58017;SDS011;43810;50.860;19.226;2022-08-14T07:37:57;15.68;;;10.63;;
58017;SDS011;43810;50.860;19.226;2022-08-14T07:40:23;13.05;;;9.43;;
58017;SDS011;43810;50.860;19.226;2022-08-14T07:42:48;12.75;;;9.30;;
58017;SDS011;43810;50.860;19.226;2022-08-14T07:45:14;11.35;;;9.23;;
58017;SDS011;43810;50.860;19.226;2022-08-14T07:47:40;15.02;;;10.75;;
58017;SDS011;43810;50.860;19.226;2022-08-14T07:50:13;14.82;;;9.85;;
58017;SDS011;43810;50.860;19.226;2022-08-14T07:52:40;13.95;;;9.55;;
58017;SDS011;43810;50.860;19.226;2022-08-14T07:55:06;15.45;;;9.68;;
58017;SDS011;43810;50.860;19.226;2022-08-14T07:57:32;12.93;;;10.15;;
58017;SDS011;43810;50.860;19.226;2022-08-14T07:59:58;13.93;;;10.02;;
58017;SDS011;43810;50.860;19.226;2022-08-14T08:02:23;14.23;;;10.90;;
58017;SDS011;43810;50.860;19.226;2022-08-14T08:04:52;15.32;;;10.23;;
58017;SDS011;43810;50.860;19.226;2022-08-14T08:07:24;13.55;;;9.77;;
58017;SDS011;43810;50.860;19.226;2022-08-14T08:09:52;11.60;;;9.20;;
58017;SDS011;43810;50.860;19.226;2022-08-14T08:12:19;13.35;;;9.07;;
58017;SDS011;43810;50.860;19.226;2022-08-14T08:17:32;10.73;;;8.98;;
58017;SDS011;43810;50.860;19.226;2022-08-14T08:19:59;10.75;;;8.85;;
58017;SDS011;43810;50.860;19.226;2022-08-14T08:22:24;14.38;;;9.13;;
58017;SDS011;43810;50.860;19.226;2022-08-14T08:24:51;10.85;;;8.70;;
58017;SDS011;43810;50.860;19.226;2022-08-14T08:27:17;14.32;;;9.77;;
58017;SDS011;43810;50.860;19.226;2022-08-14T08:29:44;12.85;;;9.85;;
58017;SDS011;43810;50.860;19.226;2022-08-14T08:32:09;12.05;;;9.80;;
58017;SDS011;43810;50.860;19.226;2022-08-14T08:34:42;14.57;;;9.20;;
58017;SDS011;43810;50.860;19.226;2022-08-14T08:37:09;13.63;;;10.10;;
58017;SDS011;43810;50.860;19.226;2022-08-14T08:39:44;11.60;;;9.00;;
58017;SDS011;43810;50.860;19.226;2022-08-14T08:42:10;12.13;;;9.80;;
58017;SDS011;43810;50.860;19.226;2022-08-14T08:44:36;9.73;;;8.60;;
58017;SDS011;43810;50.860;19.226;2022-08-14T08:47:01;12.63;;;9.80;;
58017;SDS011;43810;50.860;19.226;2022-08-14T08:49:40;12.25;;;9.27;;
58017;SDS011;43810;50.860;19.226;2022-08-14T08:52:07;11.85;;;9.45;;
58017;SDS011;43810;50.860;19.226;2022-08-14T08:54:33;14.52;;;9.95;;
58017;SDS011;43810;50.860;19.226;2022-08-14T08:56:58;14.00;;;9.40;;
58017;SDS011;43810;50.860;19.226;2022-08-14T09:01:53;14.10;;;9.73;;
58017;SDS011;43810;50.860;19.226;2022-08-14T09:04:20;11.50;;;9.40;;
58017;SDS011;43810;50.860;19.226;2022-08-14T09:06:46;11.73;;;8.52;;
58017;SDS011;43810;50.860;19.226;2022-08-14T09:09:28;11.88;;;9.25;;
58017;SDS011;43810;50.860;19.226;2022-08-14T09:11:55;12.32;;;8.95;;
58017;SDS011;43810;50.860;19.226;2022-08-14T09:14:21;12.30;;;9.43;;
58017;SDS011;43810;50.860;19.226;2022-08-14T09:16:50;12.70;;;9.25;;
58017;SDS011;43810;50.860;19.226;2022-08-14T09:19:15;10.10;;;7.97;;
58017;SDS011;43810;50.860;19.226;2022-08-14T09:21:42;10.55;;;8.48;;
58017;SDS011;43810;50.860;19.226;2022-08-14T09:24:07;11.60;;;9.00;;
58017;SDS011;43810;50.860;19.226;2022-08-14T09:26:34;11.20;;;8.93;;
58017;SDS011;43810;50.860;19.226;2022-08-14T09:29:00;11.27;;;8.57;;
58017;SDS011;43810;50.860;19.226;2022-08-14T09:31:26;11.07;;;8.75;;
58017;SDS011;43810;50.860;19.226;2022-08-14T09:36:44;16.02;;;9.73;;
58017;SDS011;43810;50.860;19.226;2022-08-14T09:44:28;15.18;;;10.18;;
58017;SDS011;43810;50.860;19.226;2022-08-14T09:46:55;15.02;;;8.75;;
58017;SDS011;43810;50.860;19.226;2022-08-14T09:49:34;13.85;;;9.48;;
58017;SDS011;43810;50.860;19.226;2022-08-14T09:57:05;11.27;;;8.20;;
58017;SDS011;43810;50.860;19.226;2022-08-14T10:00:08;10.35;;;8.15;;
58017;SDS011;43810;50.860;19.226;2022-08-14T10:02:28;12.80;;;8.80;;
58017;SDS011;43810;50.860;19.226;2022-08-14T10:07:33;13.02;;;9.68;;
58017;SDS011;43810;50.860;19.226;2022-08-14T10:10:00;11.93;;;8.95;;
58017;SDS011;43810;50.860;19.226;2022-08-14T10:12:42;14.40;;;9.90;;
58017;SDS011;43810;50.860;19.226;2022-08-14T10:15:15;14.07;;;10.05;;
58017;SDS011;43810;50.860;19.226;2022-08-14T10:17:41;13.02;;;9.32;;
58017;SDS011;43810;50.860;19.226;2022-08-14T10:20:07;13.80;;;10.57;;
58017;SDS011;43810;50.860;19.226;2022-08-14T10:22:36;13.93;;;10.27;;
58017;SDS011;43810;50.860;19.226;2022-08-14T10:25:09;15.35;;;9.40;;
58017;SDS011;43810;50.860;19.226;2022-08-14T10:27:36;16.13;;;10.48;;
58017;SDS011;43810;50.860;19.226;2022-08-14T10:30:02;11.30;;;9.35;;
58017;SDS011;43810;50.860;19.226;2022-08-14T10:32:28;13.90;;;9.50;;
58017;SDS011;43810;50.860;19.226;2022-08-14T10:35:07;11.40;;;9.60;;
58017;SDS011;43810;50.860;19.226;2022-08-14T10:37:38;13.48;;;10.20;;
58017;SDS011;43810;50.860;19.226;2022-08-14T10:40:04;13.90;;;10.23;;
58017;SDS011;43810;50.860;19.226;2022-08-14T10:42:38;14.40;;;9.85;;
58017;SDS011;43810;50.860;19.226;2022-08-14T10:45:23;17.42;;;10.98;;
58017;SDS011;43810;50.860;19.226;2022-08-14T10:47:50;13.43;;;10.48;;
58017;SDS011;43810;50.860;19.226;2022-08-14T10:50:27;12.27;;;10.25;;
58017;SDS011;43810;50.860;19.226;2022-08-14T10:52:55;12.30;;;9.18;;
58017;SDS011;43810;50.860;19.226;2022-08-14T10:55:21;14.68;;;10.05;;
58017;SDS011;43810;50.860;19.226;2022-08-14T10:57:51;15.27;;;10.23;;
58017;SDS011;43810;50.860;19.226;2022-08-14T11:00:20;10.77;;;9.20;;
58017;SDS011;43810;50.860;19.226;2022-08-14T11:02:57;12.02;;;9.48;;
58017;SDS011;43810;50.860;19.226;2022-08-14T11:05:23;13.05;;;10.60;;
58017;SDS011;43810;50.860;19.226;2022-08-14T11:10:20;16.02;;;10.27;;
58017;SDS011;43810;50.860;19.226;2022-08-14T11:12:47;14.20;;;10.75;;
58017;SDS011;43810;50.860;19.226;2022-08-14T11:15:17;11.93;;;9.95;;
58017;SDS011;43810;50.860;19.226;2022-08-14T11:17:43;14.63;;;9.98;;
58017;SDS011;43810;50.860;19.226;2022-08-14T11:20:10;11.85;;;9.88;;
58017;SDS011;43810;50.860;19.226;2022-08-14T11:22:37;12.07;;;9.40;;
58017;SDS011;43810;50.860;19.226;2022-08-14T11:25:08;13.45;;;9.25;;
58017;SDS011;43810;50.860;19.226;2022-08-14T11:27:34;12.02;;;9.20;;
58017;SDS011;43810;50.860;19.226;2022-08-14T11:30:04;12.07;;;9.27;;
58017;SDS011;43810;50.860;19.226;2022-08-14T11:32:30;10.80;;;8.95;;
58017;SDS011;43810;50.860;19.226;2022-08-14T11:34:57;12.07;;;9.00;;
58017;SDS011;43810;50.860;19.226;2022-08-14T11:37:23;11.35;;;9.20;;
58017;SDS011;43810;50.860;19.226;2022-08-14T11:39:48;11.40;;;8.85;;
58017;SDS011;43810;50.860;19.226;2022-08-14T11:42:21;9.40;;;8.25;;
58017;SDS011;43810;50.860;19.226;2022-08-14T11:44:48;11.40;;;8.93;;
58017;SDS011;43810;50.860;19.226;2022-08-14T11:47:14;12.15;;;8.80;;
58017;SDS011;43810;50.860;19.226;2022-08-14T11:49:51;13.32;;;9.60;;
58017;SDS011;43810;50.860;19.226;2022-08-14T11:52:17;14.57;;;9.52;;
58017;SDS011;43810;50.860;19.226;2022-08-14T11:54:43;13.25;;;9.93;;
58017;SDS011;43810;50.860;19.226;2022-08-14T11:57:16;13.63;;;10.20;;
58017;SDS011;43810;50.860;19.226;2022-08-14T11:59:44;15.98;;;11.30;;
58017;SDS011;43810;50.860;19.226;2022-08-14T12:02:14;13.30;;;10.55;;
58017;SDS011;43810;50.860;19.226;2022-08-14T12:04:49;16.58;;;10.52;;
58017;SDS011;43810;50.860;19.226;2022-08-14T12:07:15;13.75;;;10.10;;
58017;SDS011;43810;50.860;19.226;2022-08-14T12:09:41;12.00;;;10.25;;
58017;SDS011;43810;50.860;19.226;2022-08-14T12:12:12;14.55;;;10.60;;
58017;SDS011;43810;50.860;19.226;2022-08-14T12:14:51;13.05;;;9.90;;
58017;SDS011;43810;50.860;19.226;2022-08-14T12:17:22;11.57;;;9.27;;
58017;SDS011;43810;50.860;19.226;2022-08-14T12:19:50;11.27;;;8.90;;
58017;SDS011;43810;50.860;19.226;2022-08-14T12:22:16;11.50;;;8.98;;
58017;SDS011;43810;50.860;19.226;2022-08-14T12:24:42;11.63;;;8.85;;
58017;SDS011;43810;50.860;19.226;2022-08-14T12:27:10;13.32;;;10.90;;
58017;SDS011;43810;50.860;19.226;2022-08-14T12:29:37;12.60;;;8.32;;
58017;SDS011;43810;50.860;19.226;2022-08-14T12:32:06;7.03;;;5.28;;
58017;SDS011;43810;50.860;19.226;2022-08-14T12:34:32;7.35;;;5.10;;
58017;SDS011;43810;50.860;19.226;2022-08-14T12:37:02;5.97;;;5.07;;
58017;SDS011;43810;50.860;19.226;2022-08-14T12:39:29;7.35;;;4.95;;
58017;SDS011;43810;50.860;19.226;2022-08-14T12:41:55;6.75;;;5.32;;
58017;SDS011;43810;50.860;19.226;2022-08-14T12:44:34;7.20;;;4.95;;
58017;SDS011;43810;50.860;19.226;2022-08-14T12:47:01;5.75;;;5.15;;
58017;SDS011;43810;50.860;19.226;2022-08-14T12:49:26;8.27;;;5.93;;
58017;SDS011;43810;50.860;19.226;2022-08-14T12:51:56;13.07;;;9.05;;
58017;SDS011;43810;50.860;19.226;2022-08-14T12:54:22;11.45;;;10.02;;
58017;SDS011;43810;50.860;19.226;2022-08-14T12:56:47;12.95;;;10.35;;
58017;SDS011;43810;50.860;19.226;2022-08-14T12:59:13;13.52;;;10.10;;
58017;SDS011;43810;50.860;19.226;2022-08-14T13:01:40;11.32;;;9.98;;
58017;SDS011;43810;50.860;19.226;2022-08-14T13:06:33;13.93;;;9.57;;
58017;SDS011;43810;50.860;19.226;2022-08-14T13:08:59;11.50;;;9.00;;
58017;SDS011;43810;50.860;19.226;2022-08-14T13:11:25;10.93;;;8.30;;
58017;SDS011;43810;50.860;19.226;2022-08-14T13:13:56;12.23;;;8.63;;
58017;SDS011;43810;50.860;19.226;2022-08-14T13:16:23;10.35;;;8.32;;
58017;SDS011;43810;50.860;19.226;2022-08-14T13:18:49;9.10;;;8.13;;
58017;SDS011;43810;50.860;19.226;2022-08-14T13:21:15;8.98;;;7.40;;
58017;SDS011;43810;50.860;19.226;2022-08-14T13:23:42;9.88;;;7.50;;
58017;SDS011;43810;50.860;19.226;2022-08-14T13:26:08;10.45;;;7.88;;
58017;SDS011;43810;50.860;19.226;2022-08-14T13:28:35;9.70;;;8.52;;
58017;SDS011;43810;50.860;19.226;2022-08-14T13:31:02;10.43;;;8.07;;
58017;SDS011;43810;50.860;19.226;2022-08-14T13:33:28;12.93;;;8.88;;
58017;SDS011;43810;50.860;19.226;2022-08-14T13:35:55;12.75;;;10.00;;
58017;SDS011;43810;50.860;19.226;2022-08-14T13:38:22;9.73;;;7.38;;
58017;SDS011;43810;50.860;19.226;2022-08-14T13:40:53;9.98;;;7.95;;
58017;SDS011;43810;50.860;19.226;2022-08-14T13:43:23;11.53;;;8.00;;
58017;SDS011;43810;50.860;19.226;2022-08-14T13:45:52;9.77;;;7.82;;
58017;SDS011;43810;50.860;19.226;2022-08-14T13:48:20;8.55;;;7.65;;
58017;SDS011;43810;50.860;19.226;2022-08-14T13:50:46;8.63;;;7.45;;
58017;SDS011;43810;50.860;19.226;2022-08-14T13:53:15;8.55;;;6.80;;
58017;SDS011;43810;50.860;19.226;2022-08-14T13:55:41;7.28;;;6.38;;
58017;SDS011;43810;50.860;19.226;2022-08-14T13:58:08;7.55;;;5.78;;
58017;SDS011;43810;50.860;19.226;2022-08-14T14:00:36;8.30;;;6.25;;
58017;SDS011;43810;50.860;19.226;2022-08-14T14:03:03;9.55;;;6.53;;
58017;SDS011;43810;50.860;19.226;2022-08-14T14:05:30;7.63;;;6.72;;
58017;SDS011;43810;50.860;19.226;2022-08-14T14:07:57;6.80;;;6.07;;
58017;SDS011;43810;50.860;19.226;2022-08-14T14:10:23;7.47;;;6.53;;
58017;SDS011;43810;50.860;19.226;2022-08-14T14:12:49;7.72;;;7.03;;
58017;SDS011;43810;50.860;19.226;2022-08-14T14:15:16;7.55;;;6.80;;
58017;SDS011;43810;50.860;19.226;2022-08-14T14:17:42;6.32;;;5.72;;
58017;SDS011;43810;50.860;19.226;2022-08-14T14:20:10;6.65;;;6.00;;
58017;SDS011;43810;50.860;19.226;2022-08-14T14:22:40;7.00;;;6.00;;
58017;SDS011;43810;50.860;19.226;2022-08-14T14:25:06;7.63;;;6.10;;
58017;SDS011;43810;50.860;19.226;2022-08-14T14:27:32;6.22;;;5.63;;
58017;SDS011;43810;50.860;19.226;2022-08-14T14:29:58;7.93;;;6.22;;
58017;SDS011;43810;50.860;19.226;2022-08-14T14:32:27;7.90;;;5.45;;
58017;SDS011;43810;50.860;19.226;2022-08-14T14:34:52;6.88;;;5.82;;
58017;SDS011;43810;50.860;19.226;2022-08-14T14:37:19;7.85;;;5.85;;
58017;SDS011;43810;50.860;19.226;2022-08-14T14:39:44;7.93;;;6.45;;
58017;SDS011;43810;50.860;19.226;2022-08-14T14:42:12;9.38;;;7.80;;
58017;SDS011;43810;50.860;19.226;2022-08-14T14:44:38;8.60;;;7.20;;